Tiempo atmosférico en la estación meteorológica de Haría, Las Palmas (277 m.)



Fecha
DESCASC
Temp. máxima en grados centígrados (hora)
DESCASC
Temp. mínima en grados centígrados (hora)
DESCASC
Temp. media en grados centígrados
DESCASC
Racha de viento máxima en m/sg (hora)
DESCASC
Velocidad máxima media en intervalos de 10 minutos(hora)
DESCASC
Precipitaciones diarias en mm
DESCASC
Precipitaciones de 00:00 a 06:00 en mm
DESCASC
Precipitaciones de 06:00 a 12:00 en mm
DESCASC
Precipitaciones de 12:00 a 18:00 en mm
DESCASC
Precipitaciones de 18:00 a 24:00 en mm
DESCASC
13-10-2019 22.8 (12:10) 15 (08:00) 18.9 11.39 (16:40) 6.67 (13:30) 0 0 0 0 0
12-10-2019 24.7 (13:40) 15.6 (06:50) 20.2 8.61 (17:10) 5.56 (16:40) 0 0 0 0 0
11-10-2019 23.9 (13:00) 17.5 (08:10) 20.7 8.61 (04:50) 6.11 (04:50) 0 0 0 0 0
10-10-2019 23.6 (13:10) 17.8 (00:00) 20.7 7.78 (15:00) 4.72 (13:10) 0 0 0 0 0
09-10-2019 23.7 (13:20) 18.5 (00:00) 21.1 9.72 (14:50) 6.67 (04:00) 0 0 0 0 0
08-10-2019 23.4 (14:40) 17.9 (00:00) 20.6 8.61 (13:50) 6.11 (18:50) 0 0 0 0 0
07-10-2019 24.2 (15:40) 19 (00:00) 21.6 10 (17:50) 6.11 (15:40) 0 0 0 0 0
06-10-2019 22.3 (14:50) 19 (00:00) 20.6 10.83 (13:50) 6.94 (15:30) 0 0 0 0 0
05-10-2019 23.4 (14:30) 19.8 (00:00) 21.6 13.89 (15:00) 9.44 (15:20) 0 0 0 0 0
04-10-2019 24.1 (15:50) 19.4 (00:00) 21.8 13.89 (06:50) 9.17 (16:20) 0 0 0 0 0
03-10-2019 24.2 (15:50) 19.8 (00:00) 22 16.39 (18:50) 11.11 (13:10) 0 0 0 0 0
02-10-2019 26.9 (15:00) 19.1 (00:00) 23 10.83 (23:40) 6.39 (23:59) 0 0 0 0 0
01-10-2019 26.7 (15:10) 19.5 (00:00) 23.1 10.28 (09:40) 7.78 (09:30) 0 0 0 0 0
30-09-2019 31 (16:00) 21.2 (00:00) 26.1 12.78 (18:00) 9.44 (18:00) 0 0 0 0 0
29-09-2019 25 (18:20) 19.2 (00:00) 22.1 10.28 (21:20) 6.94 (21:20) 0 0 0 0 0
28-09-2019 24.6 (17:00) 18.8 (00:00) 21.7 8.89 (17:30) 7.22 (17:30) 0 0 0 0 0
27-09-2019 23.5 (15:10) 19 (00:00) 21.3 9.17 (12:00) 5.56 (14:10) 0 0 0 0 0
26-09-2019 23.8 (15:10) 19.9 (00:00) 21.8 9.72 (14:20) 6.67 (15:20) 0 0 0 0 0
25-09-2019 24 (14:10) 19.2 (00:00) 21.6 11.94 (13:00) 8.61 (11:00) 0 0 0 0 0
24-09-2019 23.6 (14:20) 18.9 (00:00) 21.3 11.67 (14:00) 7.78 (16:30) 0 0 0 0 0
23-09-2019 23.8 (15:30) 18.8 (00:00) 21.3 11.94 (21:50) 6.94 (16:40) 0 0 0 0 0
22-09-2019 26.1 (13:20) 19.6 (00:00) 22.9 9.17 (18:10) 6.11 (18:50) 0 0 0 0 0
21-09-2019 25.6 (14:30) 16.8 (00:00) 21.2 10.56 (17:00) 7.22 (16:50) 0 0 0 0 0
20-09-2019 25.4 (15:50) 18.5 (00:00) 21.9 9.72 (17:50) 6.11 (18:30) 0 0 0 0 0
19-09-2019 24.2 (14:50) 18.6 (00:00) 21.4 10.28 (12:40) 6.67 (14:30) 0 0 0 0 0
18-09-2019 23.9 (13:50) 19.2 (00:00) 21.6 9.72 (13:30) 5.83 (14:50) 0 0 0 0 0
17-09-2019 24.1 (13:40) 18.6 (00:00) 21.4 10 (13:50) 5.83 (16:10) 0 0 0 0 0
16-09-2019 23.4 (15:00) 17.6 (00:00) 20.5 11.39 (09:10) 6.94 (08:20) 0 0 0 0 0

Gráficas

Temp. máximas Temp. mínimas Temp. medias Precipitaciones Rachas de viento máximas Velocidades máximas media en intervalos de 10 minutos

Datos horarios

Fecha y hora oficial Temperatura (ºC) Velocidad del viento (km/h) Dirección del viento Racha (km/h) Dirección de racha Precipitación (mm) Presión (hPa) Tendencia (hPa) Humedad (%)
2019-10-15 23:00:00 18.1 4 Norte 15 Nordeste 0 -- -- 84
2019-10-15 22:00:00 18.4 8 Nordeste 20 Nordeste 0 -- -- 82
2019-10-15 21:00:00 18.6 11 Nordeste 23 Nordeste 0 -- -- 80
2019-10-15 20:00:00 18.9 15 Nordeste 23 Norte 0 -- -- 78
2019-10-15 19:00:00 19.6 15 Nordeste 32 Nordeste 0 -- -- 75
2019-10-15 18:00:00 20.6 19 Norte 33 Norte 0 -- -- 70
2019-10-15 17:00:00 21.5 18 Norte 29 Norte 0 -- -- 63
2019-10-15 16:00:00 21.8 17 Nordeste 30 Nordeste 0 -- -- 63
2019-10-15 15:00:00 21.8 13 Nordeste 28 Nordeste 0 -- -- 63
2019-10-15 14:00:00 21.9 18 Nordeste 28 Nordeste 0 -- -- 58
2019-10-15 13:00:00 22.2 16 Nordeste 35 Este 0 -- -- 58
2019-10-15 12:00:00 21.5 13 Nordeste 35 Nordeste 0 -- -- 58
2019-10-15 11:00:00 20.9 17 Nordeste 30 Nordeste 0 -- -- 62
2019-10-15 10:00:00 19.8 18 Nordeste 27 Nordeste 0 -- -- 67
2019-10-15 09:00:00 18.5 13 Nordeste 21 Nordeste 0 -- -- 76
2019-10-15 08:00:00 17.6 10 Norte 21 Norte 0 -- -- 78
2019-10-15 07:00:00 17.8 9 Norte 17 Norte 0 -- -- 81
2019-10-15 06:00:00 17.4 8 Nordeste 22 Nordeste 0 -- -- 81
2019-10-15 05:00:00 17.7 13 Nordeste 20 Nordeste 0 -- -- 84
2019-10-15 04:00:00 17.6 9 Norte 16 Nordeste 0 -- -- 84
2019-10-15 03:00:00 17.8 8 Nordeste 18 Nordeste 0 -- -- 84
2019-10-15 02:00:00 18.2 11 Nordeste 22 Nordeste 0 -- -- 83
2019-10-15 01:00:00 18.4 11 Norte 22 Nordeste 0 -- -- 82
2019-10-15 00:00:00 18.4 10 Nordeste 20 Nordeste 0 -- -- 85
2019-10-14 23:00:00 18.5 12 Norte 21 Nordeste 0 -- -- 85
2019-10-14 22:00:00 18.7 11 Nordeste 27 Nordeste 0 -- -- 85
2019-10-14 21:00:00 18.9 13 Nordeste 21 Nordeste 0 -- -- 84
2019-10-14 20:00:00 19.1 13 Nordeste 28 Norte 0 -- -- 83
2019-10-14 19:00:00 19.7 17 Nordeste 30 Nordeste 0 -- -- 81
2019-10-14 18:00:00 20.5 19 Nordeste 27 Norte 0 -- -- 77
2019-10-14 17:00:00 20.7 19 Nordeste 27 Nordeste 0 -- -- 75
2019-10-14 16:00:00 20.5 17 Nordeste 28 Norte 0 -- -- 83
2019-10-14 15:00:00 21.5 17 Nordeste 28 Nordeste 0 -- -- 74
2019-10-14 14:00:00 20.8 12 Nordeste 32 Nordeste 0 -- -- 80
2019-10-14 13:00:00 21.3 22 Nordeste 31 Norte 0 -- -- 78
2019-10-14 12:00:00 21.4 17 Norte 31 Norte 0 -- -- 81
2019-10-14 11:00:00 20.5 15 Norte 25 Norte 0 -- -- 93
2019-10-14 10:00:00 19.5 14 Norte 24 Norte 0 -- -- 92
2019-10-14 09:00:00 19.5 9 Norte 17 Oeste 0 -- -- 91
2019-10-14 08:00:00 18.8 12 Oeste 20 Noroeste 0 -- -- 90
2019-10-14 07:00:00 18.8 15 Noroeste 20 Noroeste 0 -- -- 92
2019-10-14 06:00:00 18.5 10 Noroeste 14 Noroeste 0 -- -- 93
2019-10-14 05:00:00 18 4 Noroeste 14 Noroeste 0 -- -- 91
2019-10-14 04:00:00 18.5 9 Oeste 15 Oeste 0 -- -- 90
2019-10-14 03:00:00 17.8 13 Noroeste 16 Noroeste 0 -- -- 89
2019-10-14 02:00:00 17.9 8 Noroeste 18 Oeste 0 -- -- 88
2019-10-14 01:00:00 18.5 4 Noroeste 14 Noroeste 0 -- -- 84
2019-10-14 00:00:00 18.3 12 Noroeste 17 Noroeste 0 -- -- 83
2019-10-13 23:00:00 18.5 10 Noroeste 18 Oeste 0 -- -- 81
2019-10-13 22:00:00 19.1 12 Oeste 16 Oeste 0 -- -- 77
2019-10-13 21:00:00 19.1 9 Oeste 16 Oeste 0 -- -- 74
2019-10-13 20:00:00 19.5 8 Oeste 23 Oeste 0 -- -- 71
2019-10-13 19:00:00 20.5 14 Oeste 30 Noroeste 0 -- -- 67
2019-10-13 18:00:00 21.7 15 Noroeste 30 Noroeste 0 -- -- 65
2019-10-13 17:00:00 22.5 22 Oeste 41 Oeste 0 -- -- 60
2019-10-13 16:00:00 22.1 12 Oeste 23 Oeste 0 -- -- 61
2019-10-13 15:00:00 21.8 10 Sudeste 29 Oeste 0 -- -- 67
2019-10-13 14:00:00 22.6 19 Oeste 33 Oeste 0 -- -- 57
2019-10-13 13:00:00 22.6 18 Oeste 31 Oeste 0 -- -- 61
2019-10-13 12:00:00 22.3 14 Oeste 26 Sudoeste 0 -- -- 60
2019-10-13 11:00:00 21.3 13 Oeste 22 Oeste 0 -- -- 67
2019-10-13 10:00:00 19.2 12 Oeste 18 Oeste 0 -- -- 89
2019-10-13 09:00:00 17.3 7 Oeste 10 Oeste 0 -- -- 96
2019-10-13 08:00:00 15 8 Noroeste 10 Noroeste 0 -- -- 94
2019-10-13 07:00:00 15.6 8 Noroeste 10 Noroeste 0 -- -- 94
2019-10-13 06:00:00 16 8 Noroeste 9 Noroeste 0 -- -- 94
2019-10-13 05:00:00 15.5 7 Oeste 10 Noroeste 0 -- -- 93
2019-10-13 04:00:00 16.3 8 Noroeste 10 Noroeste 0 -- -- 92
2019-10-13 03:00:00 16.5 7 Noroeste 9 Noroeste 0 -- -- 92
2019-10-13 02:00:00 16.8 4 Noroeste 9 Noroeste 0 -- -- 90
2019-10-13 01:00:00 17.6 3 Oeste 11 Norte 0 -- -- 88
2019-10-13 00:00:00 18.2 4 Noroeste 12 Noroeste 0 -- -- 86
2019-10-12 23:00:00 18.5 8 Noroeste 17 Norte 0 -- -- 86
2019-10-12 22:00:00 18.9 10 Noroeste 22 Noroeste 0 -- -- 86
2019-10-12 21:00:00 19.3 14 Noroeste 26 Norte 0 -- -- 85
2019-10-12 20:00:00 19.9 15 Norte 24 Noroeste 0 -- -- 84
2019-10-12 19:00:00 20.4 15 Noroeste 27 Norte 0 -- -- 78
2019-10-12 18:00:00 21.4 15 Noroeste 31 Noroeste 0 -- -- 75
2019-10-12 17:00:00 22.9 18 Noroeste 30 Noroeste 0 -- -- 68
2019-10-12 16:00:00 23.7 18 Nordeste 27 Nordeste 0 -- -- 64
2019-10-12 15:00:00 24 12 Nordeste 28 Este 0 -- -- 61
2019-10-12 14:00:00 24.1 12 Nordeste 28 Este 0 -- -- 61
2019-10-12 13:00:00 24.3 14 Nordeste 30 Sudeste 0 -- -- 60
2019-10-12 12:00:00 23.1 10 Este 19 Este 0 -- -- 70
2019-10-12 11:00:00 20.8 10 Nordeste 18 Este 0 -- -- 80
2019-10-12 10:00:00 19.4 8 Nordeste 14 Nordeste 0 -- -- 91
2019-10-12 09:00:00 17.7 5 Noroeste 12 Noroeste 0 -- -- 96
2019-10-12 08:00:00 15.6 9 Noroeste 12 Noroeste 0 -- -- 94
2019-10-12 07:00:00 15.7 9 Noroeste 13 Oeste 0 -- -- 93
2019-10-12 06:00:00 16.8 9 Noroeste 13 Noroeste 0 -- -- 91
2019-10-12 05:00:00 17.6 7 Noroeste 15 Noroeste 0 -- -- 91
2019-10-12 04:00:00 18.2 10 Noroeste 23 Noroeste 0 -- -- 91
2019-10-12 03:00:00 18.5 14 Noroeste 20 Noroeste 0 -- -- 90
2019-10-12 02:00:00 18.8 12 Noroeste 20 Noroeste 0 -- -- 88
2019-10-12 01:00:00 18.8 11 Noroeste 26 Noroeste 0 -- -- 88
2019-10-12 00:00:00 19.2 18 Noroeste 27 Oeste 0 -- -- 87
2019-10-11 23:00:00 19.1 12 Noroeste 26 Noroeste 0 -- -- 87
2019-10-11 22:00:00 19.3 14 Noroeste 27 Noroeste 0 -- -- 86
2019-10-11 21:00:00 19.3 11 Noroeste 23 Noroeste 0 -- -- 85
2019-10-11 20:00:00 19.6 12 Noroeste 23 Noroeste 0 -- -- 83
2019-10-11 19:00:00 20.5 12 Noroeste 27 Noroeste 0 -- -- 77
2019-10-11 18:00:00 21.3 15 Noroeste 28 Oeste 0 -- -- 75
2019-10-11 17:00:00 22.8 15 Oeste 26 Oeste 0 -- -- 69
2019-10-11 16:00:00 22.6 8 Sudeste 23 Sudeste 0 -- -- 70
2019-10-11 15:00:00 22.4 10 Sudeste 25 Sudeste 0 -- -- 71
2019-10-11 14:00:00 22.9 18 Oeste 26 Oeste 0 -- -- 61
2019-10-11 13:00:00 23.9 6 Sudoeste 19 Este 0 -- -- 62
2019-10-11 12:00:00 22.9 5 Sudeste 17 Este 0 -- -- 71
2019-10-11 11:00:00 22.6 6 Norte 16 Norte 0 -- -- 61
2019-10-11 10:00:00 20.9 7 Noroeste 15 Norte 0 -- -- 71
2019-10-11 09:00:00 18.9 2 Oeste 9 Noroeste 0 -- -- 92
2019-10-11 08:00:00 17.6 9 Noroeste 18 Noroeste 0 -- -- 92
2019-10-11 07:00:00 18.4 12 Noroeste 25 Oeste 0 -- -- 92
2019-10-11 06:00:00 18.5 19 Noroeste 26 Oeste 0 -- -- 93
2019-10-11 05:00:00 18.6 20 Oeste 31 Noroeste 0 -- -- 93
2019-10-11 04:00:00 18.6 19 Noroeste 27 Noroeste 0 -- -- 93
2019-10-11 03:00:00 18.3 10 Noroeste 16 Noroeste 0 -- -- 93
2019-10-11 02:00:00 18.3 10 Noroeste 15 Noroeste 0 -- -- 93
2019-10-11 01:00:00 17.7 9 Noroeste 13 Oeste 0 -- -- 91
2019-10-11 00:00:00 17.8 7 Noroeste 12 Oeste 0 -- -- 89
2019-10-10 23:00:00 18.3 5 Noroeste 9 Noroeste 0 -- -- 88
2019-10-10 22:00:00 19.4 4 Noroeste 7 Norte 0 -- -- 86
2019-10-10 21:00:00 19.8 2 Nordeste 10 Norte 0 -- -- 86
2019-10-10 20:00:00 19.9 9 Norte 16 Norte 0 -- -- 85
2019-10-10 19:00:00 20.5 9 Norte 18 Norte 0 -- -- 84
2019-10-10 18:00:00 21 14 Nordeste 23 Nordeste 0 -- -- 80
2019-10-10 17:00:00 21.5 13 Nordeste 20 Nordeste 0 -- -- 77
2019-10-10 16:00:00 22.2 12 Este 23 Este 0 -- -- 74
2019-10-10 15:00:00 22.8 10 Nordeste 28 Este 0 -- -- 68
2019-10-10 14:00:00 22.8 14 Nordeste 27 Nordeste 0 -- -- 70
2019-10-10 13:00:00 23.4 16 Nordeste 28 Nordeste 0 -- -- 69
2019-10-10 12:00:00 22.6 11 Nordeste 23 Nordeste 0 -- -- 69
2019-10-10 11:00:00 22.3 12 Nordeste 23 Este 0 -- -- 71
2019-10-10 10:00:00 21.2 8 Nordeste 15 Nordeste 0 -- -- 72
2019-10-10 09:00:00 19.9 5 Norte 17 Norte 0 -- -- 78
2019-10-10 08:00:00 19.5 12 Norte 18 Norte 0 -- -- 84
2019-10-10 07:00:00 19.4 12 Noroeste 24 Norte 0 -- -- 82
2019-10-10 06:00:00 19.8 10 Norte 21 Norte 0 -- -- 89
2019-10-10 05:00:00 19.8 11 Norte 18 Norte 0 -- -- 88
2019-10-10 04:00:00 19.8 10 Norte 21 Nordeste 0 -- -- 84
2019-10-10 03:00:00 20.3 11 Norte 19 Norte 0 -- -- 86
2019-10-10 02:00:00 20.1 9 Norte 18 Norte 0 -- -- 87
2019-10-10 01:00:00 20.4 12 Norte 19 Norte 0 -- -- 85
2019-10-10 00:00:00 20 10 Norte 22 Norte 0 -- -- 89
2019-10-09 23:00:00 20.4 11 Nordeste 23 Nordeste 0 -- -- 90
2019-10-09 22:00:00 20 11 Norte 18 Norte 0 -- -- 86
2019-10-09 21:00:00 20.3 8 Norte 25 Noroeste 0 -- -- 82
2019-10-09 20:00:00 20.5 16 Norte 29 Norte 0 -- -- 78
2019-10-09 19:00:00 20.8 14 Norte 27 Norte 0 -- -- 77
2019-10-09 18:00:00 21.7 16 Norte 31 Norte 0 -- -- 75
2019-10-09 17:00:00 22.1 17 Norte 30 Nordeste 0 -- -- 72
2019-10-09 16:00:00 22.8 17 Norte 33 Norte 0 -- -- 69
2019-10-09 15:00:00 22.9 19 Norte 35 Norte 0 -- -- 68
2019-10-09 14:00:00 23.2 18 Norte 33 Nordeste 0 -- -- 68
2019-10-09 13:00:00 23.3 18 Norte 34 Norte 0 -- -- 67
2019-10-09 12:00:00 22.8 20 Norte 33 Norte 0 -- -- 69
2019-10-09 11:00:00 21.3 17 Norte 30 Norte 0 -- -- 75
2019-10-09 10:00:00 20.7 16 Norte 28 Norte 0 -- -- 74
2019-10-09 09:00:00 19.2 14 Norte 24 Norte 0 -- -- 81
2019-10-09 08:00:00 18.8 12 Norte 23 Norte 0 -- -- 83
2019-10-09 07:00:00 18.9 9 Noroeste 24 Norte 0 -- -- 85
2019-10-09 06:00:00 18.7 15 Norte 27 Noroeste 0 -- -- 85
2019-10-09 05:00:00 18.5 19 Norte 31 Noroeste 0 -- -- 86
2019-10-09 04:00:00 18.5 24 Noroeste 33 Norte 0 -- -- 86
2019-10-09 03:00:00 18.7 14 Noroeste 22 Norte 0 -- -- 86
2019-10-09 02:00:00 18.9 13 Norte 26 Norte 0 -- -- 86
2019-10-09 01:00:00 18.9 10 Norte 19 Noroeste 0 -- -- 88
2019-10-09 00:00:00 18.8 10 Noroeste 24 Norte 0 -- -- 88
2019-10-08 23:00:00 18.9 13 Noroeste 25 Noroeste 0 -- -- 89
2019-10-08 22:00:00 19 16 Noroeste 29 Noroeste 0 -- -- 89
2019-10-08 21:00:00 19.1 14 Noroeste 23 Noroeste 0 -- -- 88
2019-10-08 20:00:00 19.5 15 Noroeste 31 Norte 0 -- -- 83
2019-10-08 19:00:00 20.5 18 Norte 29 Noroeste 0 -- -- 79
2019-10-08 18:00:00 22 16 Norte 28 Nordeste 0 -- -- 74
2019-10-08 17:00:00 22.5 18 Nordeste 28 Norte 0 -- -- 73
2019-10-08 16:00:00 23.1 15 Norte 29 Nordeste 0 -- -- 72
2019-10-08 15:00:00 23.4 15 Nordeste 28 Nordeste 0 -- -- 71
2019-10-08 14:00:00 23 18 Nordeste 31 Nordeste 0 -- -- 72
2019-10-08 13:00:00 22.8 18 Nordeste 29 Nordeste 0 -- -- 73
2019-10-08 12:00:00 22.3 16 Nordeste 27 Nordeste 0 -- -- 75
2019-10-08 11:00:00 21.4 16 Norte 27 Norte 0 -- -- 80
2019-10-08 10:00:00 20.7 15 Norte 29 Norte 0 -- -- 87
2019-10-08 09:00:00 18.7 12 Norte 21 Noroeste 0 -- -- 92
2019-10-08 08:00:00 18.4 11 Norte 23 Norte 0 -- -- 93
2019-10-08 07:00:00 18.4 14 Norte 24 Norte 0 -- -- 93
2019-10-08 06:00:00 18.5 12 Norte 22 Norte 0 -- -- 93
2019-10-08 05:00:00 18.9 6 Norte 17 Nordeste 0 -- -- 93
2019-10-08 04:00:00 19 11 Nordeste 19 Norte 0 -- -- 93
2019-10-08 03:00:00 19.1 9 Norte 17 Nordeste 0 -- -- 92
2019-10-08 02:00:00 19.3 6 Nordeste 16 Norte 0 -- -- 92
2019-10-08 01:00:00 19.4 7 Norte 18 Norte 0 -- -- 92
2019-10-08 00:00:00 19.5 10 Nordeste 21 Nordeste 0 -- -- 92
2019-10-07 23:00:00 19.5 11 Nordeste 21 Este 0 -- -- 91
2019-10-07 22:00:00 19.5 12 Nordeste 22 Nordeste 0 -- -- 90
2019-10-07 21:00:00 19.6 17 Nordeste 27 Nordeste 0 -- -- 89
2019-10-07 20:00:00 19.9 16 Norte 29 Noroeste 0 -- -- 87
2019-10-07 19:00:00 21.1 20 Norte 29 Norte 0 -- -- 82
2019-10-07 18:00:00 22.5 21 Norte 36 Norte 0 -- -- 77
2019-10-07 17:00:00 24.1 21 Norte 33 Norte 0 -- -- 70
2019-10-07 16:00:00 23.8 22 Norte 32 Norte 0 -- -- 70
2019-10-07 15:00:00 23.7 19 Nordeste 30 Nordeste 0 -- -- 71
2019-10-07 14:00:00 23.7 14 Nordeste 26 Nordeste 0 -- -- 71
2019-10-07 13:00:00 22.5 10 Nordeste 19 Nordeste 0 -- -- 76
2019-10-07 12:00:00 21.3 10 Nordeste 25 Nordeste 0 -- -- 82
2019-10-07 11:00:00 20.4 12 Nordeste 24 Nordeste 0 -- -- 85
2019-10-07 10:00:00 20 17 Nordeste 24 Norte 0 -- -- 87
2019-10-07 09:00:00 19.5 12 Nordeste 24 Norte 0 -- -- 89
2019-10-07 08:00:00 19.2 15 Norte 27 Norte 0 -- -- 89
2019-10-07 07:00:00 19.2 12 Nordeste 23 Nordeste 0 -- -- 89
2019-10-07 06:00:00 19.1 13 Norte 23 Norte 0 -- -- 90
2019-10-07 05:00:00 19.2 13 Norte 24 Norte 0 -- -- 90
2019-10-07 04:00:00 19.1 14 Norte 25 Norte 0 -- -- 90
2019-10-07 03:00:00 19.1 13 Norte 23 Norte 0 -- -- 90
2019-10-07 02:00:00 19.2 12 Nordeste 28 Nordeste 0 -- -- 89
2019-10-07 01:00:00 19.2 13 Nordeste 24 Nordeste 0 -- -- 89
2019-10-07 00:00:00 19.3 12 Nordeste 25 Nordeste 0 -- -- 88
2019-10-06 23:00:00 19.4 13 Nordeste 29 Nordeste 0 -- -- 88
2019-10-06 22:00:00 19.6 13 Nordeste 24 Nordeste 0 -- -- 87
2019-10-06 21:00:00 19.7 14 Nordeste 28 Nordeste 0 -- -- 86
2019-10-06 20:00:00 19.7 13 Nordeste 30 Norte 0 -- -- 86
2019-10-06 19:00:00 20.2 14 Norte 32 Norte 0 -- -- 84
2019-10-06 18:00:00 20.6 17 Nordeste 32 Nordeste 0 -- -- 81
2019-10-06 17:00:00 21.2 21 Nordeste 35 Nordeste 0 -- -- 80
2019-10-06 16:00:00 21.8 24 Norte 38 Norte 0 -- -- 76
2019-10-06 15:00:00 22.1 23 Norte 34 Norte 0 -- -- 76
2019-10-06 14:00:00 21.6 18 Nordeste 39 Nordeste 0 -- -- 77
2019-10-06 13:00:00 21.5 18 Nordeste 31 Nordeste 0 -- -- 79
2019-10-06 12:00:00 21 19 Nordeste 32 Nordeste 0 -- -- 82
2019-10-06 11:00:00 20.3 19 Nordeste 29 Nordeste 0 -- -- 83
2019-10-06 10:00:00 19.8 18 Nordeste 28 Norte 0 -- -- 87
2019-10-06 09:00:00 19.4 17 Norte 30 Norte 0 -- -- 88
2019-10-06 08:00:00 19.2 12 Norte 28 Norte 0 -- -- 89
2019-10-06 07:00:00 19 17 Norte 32 Norte 0 -- -- 89
2019-10-06 06:00:00 19.3 18 Nordeste 30 Nordeste 0 -- -- 88
2019-10-06 05:00:00 19.4 20 Norte 32 Norte 0 -- -- 88
2019-10-06 04:00:00 19.5 20 Norte 31 Norte 0 -- -- 88
2019-10-06 03:00:00 19.6 17 Norte 29 Nordeste 0 -- -- 89
2019-10-06 02:00:00 19.7 15 Norte 30 Nordeste 0 -- -- 88
2019-10-06 01:00:00 19.8 21 Nordeste 32 Nordeste 0 -- -- 87
2019-10-06 00:00:00 19.9 17 Nordeste 34 Nordeste 0 -- -- 88
2019-10-05 23:00:00 19.8 22 Nordeste 33 Nordeste 0 -- -- 89
2019-10-05 22:00:00 19.8 19 Nordeste 35 Norte 0 -- -- 89
2019-10-05 21:00:00 20 15 Norte 41 Norte 0 -- -- 88
2019-10-05 20:00:00 20.2 21 Norte 46 Norte 0 -- -- 88
2019-10-05 19:00:00 20.6 28 Norte 47 Norte 0 -- -- 86
2019-10-05 18:00:00 21.5 27 Norte 47 Norte 0 -- -- 82
2019-10-05 17:00:00 22.3 27 Norte 48 Norte 0 -- -- 79
2019-10-05 16:00:00 22.9 27 Norte 47 Nordeste 0 -- -- 77
2019-10-05 15:00:00 22.8 30 Norte 50 Norte 0 -- -- 76
2019-10-05 14:00:00 23.2 28 Nordeste 42 Nordeste 0 -- -- 76
2019-10-05 13:00:00 23.1 22 Nordeste 47 Nordeste 0 -- -- 78
2019-10-05 12:00:00 22.4 26 Nordeste 46 Norte 0 -- -- 78
2019-10-05 11:00:00 21.9 32 Norte 46 Norte 0 -- -- 81
2019-10-05 10:00:00 21 26 Norte 45 Norte 0 -- -- 86
2019-10-05 09:00:00 20.3 26 Norte 45 Norte 0 -- -- 90
2019-10-05 08:00:00 20 19 Norte 42 Norte 0 -- -- 91
2019-10-05 07:00:00 20 23 Norte 39 Norte 0 -- -- 92
2019-10-05 06:00:00 20 19 Norte 40 Norte 0 -- -- 93
2019-10-05 05:00:00 19.9 21 Norte 37 Nordeste 0 -- -- 93
2019-10-05 04:00:00 19.9 18 Norte 40 Norte 0 -- -- 93
2019-10-05 03:00:00 20 18 Norte 36 Norte 0 -- -- 93
2019-10-05 02:00:00 20 17 Norte 39 Norte 0 -- -- 93
2019-10-05 01:00:00 20 24 Norte 40 Norte 0 -- -- 93
2019-10-05 00:00:00 19.8 21 Norte 41 Norte 0 -- -- 92
2019-10-04 23:00:00 19.9 26 Norte 43 Norte 0 -- -- 90
2019-10-04 22:00:00 19.9 26 Norte 42 Norte 0 -- -- 89
2019-10-04 21:00:00 20.2 20 Norte 38 Norte 0 -- -- 88
2019-10-04 20:00:00 20.2 27 Norte 44 Norte 0 -- -- 86
2019-10-04 19:00:00 21.3 22 Norte 41 Noroeste 0 -- -- 80
2019-10-04 18:00:00 22.4 28 Noroeste 43 Noroeste 0 -- -- 75
2019-10-04 17:00:00 22.3 28 Norte 44 Norte 0 -- -- 76
2019-10-04 16:00:00 23.9 30 Norte 45 Norte 0 -- -- 70
2019-10-04 15:00:00 23.4 27 Norte 39 Norte 0 -- -- 74
2019-10-04 14:00:00 23.6 24 Norte 39 Norte 0 -- -- 73
2019-10-04 13:00:00 23.2 23 Norte 36 Norte 0 -- -- 75
2019-10-04 12:00:00 22.4 22 Nordeste 40 Nordeste 0 -- -- 78
2019-10-04 11:00:00 22.5 24 Norte 38 Norte 0 -- -- 81
2019-10-04 10:00:00 20.8 21 Norte 37 Norte 0 -- -- 87
2019-10-04 09:00:00 19.9 19 Norte 36 Norte 0 -- -- 90
2019-10-04 08:00:00 19.5 18 Noroeste 46 Norte 0 -- -- 91
2019-10-04 07:00:00 19.6 21 Norte 50 Norte 0 -- -- 92
2019-10-04 06:00:00 19.5 24 Norte 45 Norte 0 -- -- 92
2019-10-04 05:00:00 19.4 19 Norte 46 Norte 0 -- -- 91
2019-10-04 04:00:00 19.5 21 Noroeste 43 Norte 0 -- -- 92
2019-10-04 03:00:00 19.8 20 Noroeste 45 Norte 0 -- -- 90
2019-10-04 02:00:00 19.8 27 Norte 47 Norte 0 -- -- 89
2019-10-04 01:00:00 19.7 27 Norte 46 Norte 0 -- -- 91
2019-10-04 00:00:00 19.8 31 Norte 47 Norte 0 -- -- 90
2019-10-03 23:00:00 20.1 27 Noroeste 44 Noroeste 0 -- -- 88
2019-10-03 22:00:00 20.1 28 Noroeste 47 Noroeste 0 -- -- 89
2019-10-03 21:00:00 20.6 25 Noroeste 46 Norte 0 -- -- 83
2019-10-03 20:00:00 20.4 28 Noroeste 51 Noroeste 0 -- -- 86
2019-10-03 19:00:00 20.7 36 Noroeste 59 Noroeste 0 -- -- 85
2019-10-03 18:00:00 22.5 28 Noroeste 51 Noroeste 0 -- -- 77
2019-10-03 17:00:00 23.1 32 Noroeste 57 Noroeste 0 -- -- 76
2019-10-03 16:00:00 24 28 Noroeste 50 Norte 0 -- -- 73
2019-10-03 15:00:00 23.3 37 Norte 57 Norte 0 -- -- 77
2019-10-03 14:00:00 23.9 28 Norte 56 Norte 0 -- -- 74
2019-10-03 13:00:00 23.3 35 Norte 56 Norte 0 -- -- 77
2019-10-03 12:00:00 23.1 32 Norte 51 Norte 0 -- -- 80
2019-10-03 11:00:00 22.7 28 Norte 46 Norte 0 -- -- 82
2019-10-03 10:00:00 21.2 30 Norte 44 Norte 0 -- -- 89
2019-10-03 09:00:00 20.3 26 Norte 47 Norte 0 -- -- 92
2019-10-03 08:00:00 20.1 16 Noroeste 37 Norte 0 -- -- 89
2019-10-03 07:00:00 20.3 16 Norte 42 Norte 0 -- -- 88
2019-10-03 06:00:00 19.8 19 Norte 40 Norte 0 -- -- 92
2019-10-03 05:00:00 20 18 Norte 36 Norte 0 -- -- 91
2019-10-03 04:00:00 20.5 18 Norte 32 Norte 0 -- -- 84
2019-10-03 03:00:00 20.7 19 Norte 31 Norte 0 -- -- 83
2019-10-03 02:00:00 20.5 16 Norte 33 Norte 0 -- -- 87
2019-10-03 01:00:00 20.8 20 Norte 36 Norte 0 -- -- 86
2019-10-03 00:00:00 21.2 23 Norte 39 Norte 0 -- -- 83
2019-10-02 23:00:00 21.4 19 Norte 35 Norte 0 -- -- 78
2019-10-02 22:00:00 21.8 19 Norte 32 Norte 0 -- -- 73
2019-10-02 21:00:00 22.2 12 Norte 26 Norte 0 -- -- 70
2019-10-02 20:00:00 22.8 17 Norte 31 Norte 0 -- -- 67
2019-10-02 19:00:00 24.8 16 Norte 24 Norte 0 -- -- 57
2019-10-02 18:00:00 26.1 10 Nordeste 18 Norte 0 -- -- 52
2019-10-02 17:00:00 26.3 12 Nordeste 21 Nordeste 0 -- -- 52
2019-10-02 16:00:00 26 12 Nordeste 24 Nordeste 0 -- -- 60
2019-10-02 15:00:00 26.9 12 Nordeste 25 Norte 0 -- -- 55
2019-10-02 14:00:00 26.1 16 Nordeste 27 Nordeste 0 -- -- 57
2019-10-02 13:00:00 26.4 16 Nordeste 29 Nordeste 0 -- -- 51
2019-10-02 12:00:00 26.1 16 Nordeste 27 Nordeste 0 -- -- 50
2019-10-02 11:00:00 24.8 12 Norte 22 Nordeste 0 -- -- 60
2019-10-02 10:00:00 22.1 12 Norte 19 Norte 0 -- -- 87
2019-10-02 09:00:00 19.8 9 Norte 15 Norte 0 -- -- 96
2019-10-02 08:00:00 19.4 8 Noroeste 21 Norte 0 -- -- 96
2019-10-02 07:00:00 19.3 11 Norte 19 Norte 0 -- -- 95
2019-10-02 06:00:00 19.4 10 Noroeste 19 Norte 0 -- -- 94
2019-10-02 05:00:00 19.5 11 Noroeste 22 Noroeste 0 -- -- 92
2019-10-02 04:00:00 20 13 Noroeste 26 Noroeste 0 -- -- 83
2019-10-02 03:00:00 19.6 11 Noroeste 19 Norte 0 -- -- 95
2019-10-02 02:00:00 19.7 9 Noroeste 19 Noroeste 0 -- -- 94
2019-10-02 01:00:00 19.8 9 Noroeste 15 Noroeste 0 -- -- 92
2019-10-02 00:00:00 20.2 9 Noroeste 21 Noroeste 0 -- -- 88
2019-10-01 23:00:00 20.4 9 Noroeste 21 Noroeste 0 -- -- 88
2019-10-01 22:00:00 20.3 9 Noroeste 23 Norte 0 -- -- 90
2019-10-01 21:00:00 20.7 14 Norte 21 Norte 0 -- -- 87
2019-10-01 20:00:00 21.7 10 Norte 23 Norte 0 -- -- 75
2019-10-01 19:00:00 22.8 11 Norte 20 Norte 0 -- -- 72
2019-10-01 18:00:00 24.8 11 Nordeste 22 Norte 0 -- -- 61
2019-10-01 17:00:00 25.8 12 Nordeste 22 Nordeste 0 -- -- 56
2019-10-01 16:00:00 26 13 Nordeste 24 Nordeste 0 -- -- 55
2019-10-01 15:00:00 26.3 12 Nordeste 25 Nordeste 0 -- -- 52
2019-10-01 14:00:00 25.4 14 Nordeste 29 Nordeste 0 -- -- 65
2019-10-01 13:00:00 26.1 14 Nordeste 27 Nordeste 0 -- -- 58
2019-10-01 12:00:00 25.8 15 Nordeste 33 Norte 0 -- -- 57
2019-10-01 11:00:00 25.2 22 Norte 35 Norte 0 -- -- 60
2019-10-01 10:00:00 24.4 26 Norte 37 Norte 0 -- -- 58
2019-10-01 09:00:00 23.3 22 Norte 32 Norte 0 -- -- 62
2019-10-01 08:00:00 22.2 20 Norte 27 Norte 0 -- -- 65
2019-10-01 07:00:00 22.8 17 Norte 27 Norte 0 -- -- 59
2019-10-01 06:00:00 23.6 14 Norte 24 Norte 0 -- -- 49
2019-10-01 05:00:00 21.4 11 Noroeste 21 Noroeste 0 -- -- 66
2019-10-01 04:00:00 19.8 11 Noroeste 18 Noroeste 0 -- -- 94
2019-10-01 03:00:00 20.3 9 Norte 17 Noroeste 0 -- -- 93
2019-10-01 02:00:00 20.4 10 Noroeste 21 Oeste 0 -- -- 90
2019-10-01 01:00:00 20.7 8 Noroeste 15 Norte 0 -- -- 90
2019-10-01 00:00:00 21.2 9 Norte 24 Noroeste 0 -- -- 85
2019-09-30 23:00:00 23.1 13 Nordeste 38 Norte 0 -- -- 70
2019-09-30 22:00:00 27 20 Norte 39 Norte 0 -- -- 31
2019-09-30 21:00:00 26.8 19 Noroeste 29 Noroeste 0 -- -- 38
2019-09-30 20:00:00 25 14 Noroeste 35 Oeste 0 -- -- 52
2019-09-30 19:00:00 22.9 30 Oeste 42 Oeste 0 -- -- 80
2019-09-30 18:00:00 24.2 34 Oeste 46 Oeste 0 -- -- 74
2019-09-30 17:00:00 27.1 29 Oeste 37 Oeste 0 -- -- 62
2019-09-30 16:00:00 31 11 Norte 22 Nordeste 0 -- -- 53
2019-09-30 15:00:00 30.2 14 Nordeste 22 Nordeste 0 -- -- 51
2019-09-30 14:00:00 28.6 16 Nordeste 23 Norte 0 -- -- 54
2019-09-30 13:00:00 27.6 14 Nordeste 28 Norte 0 -- -- 55
2019-09-30 12:00:00 27.5 18 Norte 26 Norte 0 -- -- 57
2019-09-30 11:00:00 28.4 13 Este 23 Este 0 -- -- 50
2019-09-30 10:00:00 28.3 10 Nordeste 30 Norte 0 -- -- 45
2019-09-30 09:00:00 26.8 18 Norte 30 Norte 0 -- -- 47
2019-09-30 08:00:00 24 21 Noroeste 33 Noroeste 0 -- -- 50
2019-09-30 07:00:00 24.9 17 Noroeste 33 Norte 0 -- -- 47
2019-09-30 06:00:00 26 19 Norte 34 Norte 0 -- -- 37
2019-09-30 05:00:00 25.4 14 Noroeste 25 Norte 0 -- -- 42
2019-09-30 04:00:00 23.5 14 Noroeste 21 Noroeste 0 -- -- 54
2019-09-30 03:00:00 22.2 10 Noroeste 21 Noroeste 0 -- -- 66
2019-09-30 02:00:00 21.5 10 Noroeste 25 Norte 0 -- -- 73
2019-09-30 01:00:00 21.7 12 Norte 24 Noroeste 0 -- -- 71
2019-09-30 00:00:00 21.4 16 Norte 25 Norte 0 -- -- 75
2019-09-29 23:00:00 21.6 17 Norte 31 Norte 0 -- -- 70
2019-09-29 22:00:00 21.5 20 Norte 37 Norte 0 -- -- 72
2019-09-29 21:00:00 22.5 8 Norte 22 Norte 0 -- -- 63
2019-09-29 20:00:00 23.1 17 Noroeste 23 Norte 0 -- -- 60
2019-09-29 19:00:00 24.7 3 Sudeste 22 Norte 0 -- -- 61
2019-09-29 18:00:00 24.2 15 Nordeste 26 Norte 0 -- -- 71
2019-09-29 17:00:00 23.5 15 Norte 24 Norte 0 -- -- 76
2019-09-29 16:00:00 24.2 13 Nordeste 25 Nordeste 0 -- -- 74
2019-09-29 15:00:00 24.6 13 Norte 24 Nordeste 0 -- -- 72
2019-09-29 14:00:00 24.4 11 Nordeste 22 Nordeste 0 -- -- 74
2019-09-29 13:00:00 23.3 13 Nordeste 22 Nordeste 0 -- -- 78
2019-09-29 12:00:00 22.5 12 Norte 22 Nordeste 0 -- -- 81
2019-09-29 11:00:00 21.7 12 Nordeste 21 Norte 0 -- -- 84
2019-09-29 10:00:00 21.3 12 Nordeste 19 Nordeste 0 -- -- 87
2019-09-29 09:00:00 19.6 10 Nordeste 19 Nordeste 0 -- -- 93
2019-09-29 08:00:00 19.3 9 Nordeste 19 Nordeste 0 -- -- 93
2019-09-29 07:00:00 19.3 10 Nordeste 19 Este 0 -- -- 93
2019-09-29 06:00:00 19.5 9 Nordeste 17 Nordeste 0 -- -- 93
2019-09-29 05:00:00 19.4 12 Nordeste 21 Nordeste 0 -- -- 92
2019-09-29 04:00:00 19.5 9 Nordeste 21 Nordeste 0 -- -- 92
2019-09-29 03:00:00 19.6 12 Nordeste 23 Nordeste 0 -- -- 92
2019-09-29 02:00:00 19.7 10 Nordeste 21 Nordeste 0 -- -- 92
2019-09-29 01:00:00 19.7 10 Nordeste 19 Norte 0 -- -- 92
2019-09-29 00:00:00 19.6 10 Nordeste 22 Nordeste 0 -- -- 92
2019-09-28 23:00:00 19.6 12 Norte 22 Norte 0 -- -- 91
2019-09-28 22:00:00 19.6 12 Norte 24 Norte 0 -- -- 90
2019-09-28 21:00:00 19.9 14 Norte 27 Noroeste 0 -- -- 88
2019-09-28 20:00:00 20.5 17 Norte 26 Norte 0 -- -- 83
2019-09-28 19:00:00 22.8 11 Noroeste 24 Norte 0 -- -- 71
2019-09-28 18:00:00 23.5 19 Norte 32 Nordeste 0 -- -- 70
2019-09-28 17:00:00 24.6 18 Norte 28 Nordeste 0 -- -- 67
2019-09-28 16:00:00 23.9 14 Norte 27 Nordeste 0 -- -- 68
2019-09-28 15:00:00 23.6 16 Nordeste 30 Nordeste 0 -- -- 70
2019-09-28 14:00:00 23 16 Nordeste 26 Nordeste 0 -- -- 72
2019-09-28 13:00:00 22.6 15 Nordeste 26 Nordeste 0 -- -- 73
2019-09-28 12:00:00 22.1 16 Nordeste 25 Nordeste 0 -- -- 75
2019-09-28 11:00:00 21.3 15 Nordeste 25 Nordeste 0 -- -- 80
2019-09-28 10:00:00 20.1 15 Norte 24 Nordeste 0 -- -- 86
2019-09-28 09:00:00 19.4 12 Nordeste 22 Norte 0 -- -- 90
2019-09-28 08:00:00 18.8 13 Norte 23 Norte 0 -- -- 92
2019-09-28 07:00:00 18.8 14 Norte 23 Norte 0 -- -- 92
2019-09-28 06:00:00 19 13 Norte 21 Norte 0 -- -- 92
2019-09-28 05:00:00 18.8 13 Norte 24 Norte 0 -- -- 92
2019-09-28 04:00:00 18.9 12 Norte 22 Norte 0 -- -- 92
2019-09-28 03:00:00 19 15 Norte 22 Norte 0 -- -- 92
2019-09-28 02:00:00 19.2 8 Norte 17 Norte 0 -- -- 93
2019-09-28 01:00:00 19.2 8 Norte 17 Norte 0 -- -- 92
2019-09-28 00:00:00 19.4 7 Norte 19 Norte 0 -- -- 91
2019-09-27 23:00:00 19.7 10 Nordeste 22 Norte 0 -- -- 90
2019-09-27 22:00:00 20.1 13 Norte 25 Norte 0 -- -- 89
2019-09-27 21:00:00 20.3 15 Norte 28 Norte 0 -- -- 88
2019-09-27 20:00:00 20.5 16 Norte 26 Norte 0 -- -- 86
2019-09-27 19:00:00 21 18 Norte 32 Norte 0 -- -- 82
2019-09-27 18:00:00 21.9 18 Norte 30 Nordeste 0 -- -- 79
2019-09-27 17:00:00 22.6 18 Norte 29 Norte 0 -- -- 75
2019-09-27 16:00:00 22.7 17 Norte 31 Nordeste 0 -- -- 76
2019-09-27 15:00:00 23.1 20 Nordeste 31 Nordeste 0 -- -- 74
2019-09-27 14:00:00 23.4 17 Nordeste 31 Nordeste 0 -- -- 71
2019-09-27 13:00:00 23 18 Nordeste 32 Nordeste 0 -- -- 73
2019-09-27 12:00:00 22.5 18 Nordeste 33 Nordeste 0 -- -- 75
2019-09-27 11:00:00 22.6 17 Nordeste 26 Nordeste 0 -- -- 77
2019-09-27 10:00:00 20.8 16 Nordeste 28 Nordeste 0 -- -- 86
2019-09-27 09:00:00 20.3 14 Nordeste 24 Nordeste 0 -- -- 90
2019-09-27 08:00:00 19 9 Norte 20 Norte 0 -- -- 91
2019-09-27 07:00:00 19.2 13 Norte 26 Norte 0 -- -- 89
2019-09-27 06:00:00 19.3 14 Norte 26 Norte 0 -- -- 89
2019-09-27 05:00:00 19.7 15 Norte 27 Norte 0 -- -- 88
2019-09-27 04:00:00 19.8 15 Norte 26 Norte 0 -- -- 87
2019-09-27 03:00:00 19.8 16 Norte 29 Norte 0 -- -- 87
2019-09-27 02:00:00 20 12 Norte 27 Norte 0 -- -- 87
2019-09-27 01:00:00 20.2 11 Norte 22 Norte 0 -- -- 87
2019-09-27 00:00:00 20.2 14 Norte 24 Norte 0 -- -- 87
2019-09-26 23:00:00 20 11 Norte 25 Norte 0 -- -- 86
2019-09-26 22:00:00 20.1 12 Norte 27 Norte 0 -- -- 86
2019-09-26 21:00:00 20.2 21 Norte 33 Norte 0 -- -- 85
2019-09-26 20:00:00 20.5 19 Norte 30 Norte 0 -- -- 84
2019-09-26 19:00:00 21.1 17 Norte 28 Norte 0 -- -- 84
2019-09-26 18:00:00 21.8 19 Norte 27 Norte 0 -- -- 79
2019-09-26 17:00:00 22.4 17 Norte 31 Nordeste 0 -- -- 78
2019-09-26 16:00:00 23.1 21 Norte 35 Norte 0 -- -- 74
2019-09-26 15:00:00 23.7 23 Norte 35 Nordeste 0 -- -- 73
2019-09-26 14:00:00 23.4 22 Norte 33 Norte 0 -- -- 73
2019-09-26 13:00:00 22.6 19 Norte 31 Nordeste 0 -- -- 78
2019-09-26 12:00:00 22.3 19 Nordeste 32 Nordeste 0 -- -- 79
2019-09-26 11:00:00 21.7 18 Nordeste 31 Nordeste 0 -- -- 83
2019-09-26 10:00:00 21.2 16 Norte 28 Norte 0 -- -- 82
2019-09-26 09:00:00 20.4 14 Norte 28 Norte 0 -- -- 87
2019-09-26 08:00:00 20.2 17 Norte 31 Norte 0 -- -- 87
2019-09-26 07:00:00 20 17 Norte 32 Norte 0 -- -- 89
2019-09-26 06:00:00 20 13 Norte 28 Norte 0 -- -- 90
2019-09-26 05:00:00 20 15 Norte 26 Nordeste 0 -- -- 90
2019-09-26 04:00:00 20.1 12 Nordeste 24 Nordeste 0 -- -- 91
2019-09-26 03:00:00 20 13 Nordeste 27 Nordeste 0 -- -- 92
2019-09-26 02:00:00 20 11 Nordeste 23 Norte 0 -- -- 92
2019-09-26 01:00:00 20.1 15 Nordeste 24 Norte 0 -- -- 92
2019-09-26 00:00:00 20.1 12 Nordeste 28 Nordeste 0 -- -- 93
2019-09-25 23:00:00 20.3 10 Nordeste 26 Nordeste 0 -- -- 93
2019-09-25 22:00:00 20.3 15 Nordeste 29 Nordeste 0 -- -- 92
2019-09-25 21:00:00 20.6 17 Norte 28 Norte 0 -- -- 91
2019-09-25 20:00:00 20.9 16 Norte 35 Norte 0 -- -- 88
2019-09-25 19:00:00 21.5 21 Norte 37 Norte 0 -- -- 84
2019-09-25 18:00:00 22.3 21 Norte 37 Norte 0 -- -- 81
2019-09-25 17:00:00 22.7 26 Norte 38 Norte 0 -- -- 77
2019-09-25 16:00:00 23.3 27 Norte 40 Norte 0 -- -- 74
2019-09-25 15:00:00 24 26 Norte 42 Norte 0 -- -- 73
2019-09-25 14:00:00 23.8 26 Norte 43 Norte 0 -- -- 73
2019-09-25 13:00:00 23.6 29 Norte 43 Norte 0 -- -- 73
2019-09-25 12:00:00 23 28 Norte 40 Norte 0 -- -- 75
2019-09-25 11:00:00 22.3 31 Norte 41 Norte 0 -- -- 78
2019-09-25 10:00:00 21.7 21 Norte 38 Norte 0 -- -- 81
2019-09-25 09:00:00 20.5 21 Norte 39 Norte 0 -- -- 87
2019-09-25 08:00:00 19.4 18 Norte 35 Norte 0 -- -- 91
2019-09-25 07:00:00 19.4 21 Norte 33 Norte 0 -- -- 90
2019-09-25 06:00:00 19.4 22 Norte 34 Norte 0 -- -- 89
2019-09-25 05:00:00 19.5 23 Norte 40 Norte 0 -- -- 89
2019-09-25 04:00:00 19.4 19 Norte 35 Norte 0 -- -- 90
2019-09-25 03:00:00 19.2 15 Norte 29 Norte 0 -- -- 90
2019-09-25 02:00:00 19.3 17 Norte 34 Norte 0 -- -- 89
2019-09-25 01:00:00 19.4 19 Norte 29 Norte 0 -- -- 89
2019-09-25 00:00:00 19.5 17 Norte 29 Norte 0 -- -- 89
2019-09-24 23:00:00 19.5 18 Norte 35 Norte 0 -- -- 88
2019-09-24 22:00:00 19.7 21 Norte 38 Norte 0 -- -- 87
2019-09-24 21:00:00 20 18 Norte 32 Norte 0 -- -- 86
2019-09-24 20:00:00 20.1 21 Norte 35 Norte 0 -- -- 84
2019-09-24 19:00:00 20.9 21 Norte 37 Norte 0 -- -- 80
2019-09-24 18:00:00 22 24 Norte 40 Norte 0 -- -- 76
2019-09-24 17:00:00 22.9 23 Norte 41 Norte 0 -- -- 72
2019-09-24 16:00:00 23.5 23 Norte 40 Nordeste 0 -- -- 68
2019-09-24 15:00:00 23.6 26 Norte 38 Norte 0 -- -- 67
2019-09-24 14:00:00 23.3 27 Norte 42 Norte 0 -- -- 66
2019-09-24 13:00:00 22.5 26 Norte 40 Norte 0 -- -- 69
2019-09-24 12:00:00 22.1 23 Norte 38 Norte 0 -- -- 73
2019-09-24 11:00:00 21.1 21 Norte 33 Norte 0 -- -- 77
2019-09-24 10:00:00 20.4 18 Norte 35 Norte 0 -- -- 81
2019-09-24 09:00:00 19.7 22 Norte 36 Norte 0 -- -- 82
2019-09-24 08:00:00 19.3 17 Norte 28 Norte 0 -- -- 83
2019-09-24 07:00:00 19.3 15 Norte 29 Noroeste 0 -- -- 83
2019-09-24 06:00:00 19.1 15 Norte 25 Norte 0 -- -- 84
2019-09-24 05:00:00 19.1 16 Norte 29 Norte 0 -- -- 86
2019-09-24 04:00:00 19.3 17 Norte 28 Norte 0 -- -- 88
2019-09-24 03:00:00 19.3 18 Norte 31 Norte 0 -- -- 87
2019-09-24 02:00:00 19.4 13 Norte 26 Norte 0 -- -- 87
2019-09-24 01:00:00 19.5 15 Norte 26 Norte 0 -- -- 88
2019-09-24 00:00:00 19.4 10 Norte 25 Norte 0 -- -- 87
2019-09-23 23:00:00 19.6 17 Norte 28 Nordeste 0 -- -- 87
2019-09-23 22:00:00 19.9 15 Norte 43 Norte 0 -- -- 87
2019-09-23 21:00:00 20.1 16 Norte 27 Norte 0 -- -- 86
2019-09-23 20:00:00 20.3 20 Norte 37 Norte 0 -- -- 82
2019-09-23 19:00:00 21.4 16 Norte 36 Norte 0 -- -- 77
2019-09-23 18:00:00 22.4 22 Norte 37 Noroeste 0 -- -- 71
2019-09-23 17:00:00 22.9 25 Norte 36 Norte 0 -- -- 70
2019-09-23 16:00:00 23.6 23 Norte 36 Norte 0 -- -- 68
2019-09-23 15:00:00 23.2 22 Norte 40 Norte 0 -- -- 68
2019-09-23 14:00:00 23.1 21 Norte 37 Norte 0 -- -- 68
2019-09-23 13:00:00 22.8 21 Nordeste 37 Nordeste 0 -- -- 71
2019-09-23 12:00:00 22.3 21 Norte 36 Nordeste 0 -- -- 73
2019-09-23 11:00:00 21.9 22 Nordeste 33 Norte 0 -- -- 77
2019-09-23 10:00:00 20.9 21 Norte 32 Norte 0 -- -- 83
2019-09-23 09:00:00 19.8 16 Norte 25 Norte 0 -- -- 89
2019-09-23 08:00:00 19.1 14 Norte 28 Norte 0 -- -- 91
2019-09-23 07:00:00 19.2 13 Norte 26 Norte 0 -- -- 92
2019-09-23 06:00:00 19.1 15 Norte 24 Nordeste 0 -- -- 92
2019-09-23 05:00:00 19.1 12 Norte 24 Norte 0 -- -- 93
2019-09-23 04:00:00 19.1 13 Norte 23 Norte 0 -- -- 95
2019-09-23 03:00:00 19.3 13 Norte 23 Norte 0 -- -- 96
2019-09-23 02:00:00 19.6 15 Norte 24 Norte 0 -- -- 97
2019-09-23 01:00:00 19.9 8 Norte 20 Norte 0 -- -- 97
2019-09-23 00:00:00 20 10 Norte 21 Norte 0 -- -- 97
2019-09-22 23:00:00 19.9 12 Norte 25 Norte 0 -- -- 97
2019-09-22 22:00:00 20.1 13 Norte 30 Norte 0 -- -- 97
2019-09-22 21:00:00 20.4 16 Norte 30 Norte 0 -- -- 97
2019-09-22 20:00:00 20.7 18 Norte 32 Norte 0 -- -- 96
2019-09-22 19:00:00 21.3 21 Norte 33 Norte 0 -- -- 94
2019-09-22 18:00:00 23.4 16 Norte 29 Norte 0 -- -- 84
2019-09-22 17:00:00 23.2 14 Noroeste 24 Norte 0 -- -- 86
2019-09-22 16:00:00 24.4 13 Noroeste 29 Noroeste 0 -- -- 76
2019-09-22 15:00:00 25.5 20 Noroeste 29 Noroeste 0 -- -- 71
2019-09-22 14:00:00 25.5 16 Noroeste 30 Norte 0 -- -- 73
2019-09-22 13:00:00 25.6 18 Noroeste 30 Noroeste 0 -- -- 72
2019-09-22 12:00:00 24.4 18 Noroeste 30 Noroeste 0 -- -- 73
2019-09-22 11:00:00 24.3 15 Noroeste 23 Noroeste 0 -- -- 72
2019-09-22 10:00:00 23 16 Noroeste 26 Noroeste 0 -- -- 78
2019-09-22 09:00:00 21.3 8 Noroeste 17 Oeste 0 -- -- 89
2019-09-22 08:00:00 19.7 11 Noroeste 22 Noroeste 0 -- -- 92
2019-09-22 07:00:00 19.7 17 Noroeste 26 Noroeste 0 -- -- 92
2019-09-22 06:00:00 19.6 16 Noroeste 25 Noroeste 0 -- -- 92
2019-09-22 05:00:00 19.6 16 Noroeste 23 Noroeste 0 -- -- 91
2019-09-22 04:00:00 19.7 15 Noroeste 21 Noroeste 0 -- -- 90
2019-09-22 03:00:00 20.5 13 Noroeste 21 Norte 0 -- -- 90
2019-09-22 02:00:00 20.3 11 Noroeste 18 Noroeste 0 -- -- 90
2019-09-22 01:00:00 20.6 7 Noroeste 18 Noroeste 0 -- -- 90
2019-09-22 00:00:00 20.3 10 Noroeste 17 Noroeste 0 -- -- 90
2019-09-21 23:00:00 20.4 13 Noroeste 26 Noroeste 0 -- -- 89
2019-09-21 22:00:00 20.3 17 Noroeste 30 Oeste 0 -- -- 88
2019-09-21 21:00:00 20.5 22 Noroeste 33 Noroeste 0 -- -- 86
2019-09-21 20:00:00 21 14 Noroeste 24 Noroeste 0 -- -- 82
2019-09-21 19:00:00 22.2 8 Noroeste 21 Oeste 0 -- -- 77
2019-09-21 18:00:00 23.2 8 Oeste 33 Noroeste 0 -- -- 76
2019-09-21 17:00:00 23.5 24 Noroeste 38 Noroeste 0 -- -- 72
2019-09-21 16:00:00 24.4 23 Noroeste 33 Noroeste 0 -- -- 70
2019-09-21 15:00:00 24.6 18 Oeste 33 Noroeste 0 -- -- 69
2019-09-21 14:00:00 24.9 17 Noroeste 32 Oeste 0 -- -- 66
2019-09-21 13:00:00 24.6 18 Oeste 27 Oeste 0 -- -- 70
2019-09-21 12:00:00 25 15 Norte 24 Norte 0 -- -- 62
2019-09-21 11:00:00 24 7 Norte 23 Este 0 -- -- 68
2019-09-21 10:00:00 21.7 12 Oeste 22 Oeste 0 -- -- 85
2019-09-21 09:00:00 20 13 Noroeste 23 Oeste 0 -- -- 92
2019-09-21 08:00:00 18.6 13 Noroeste 21 Noroeste 0 -- -- 94
2019-09-21 07:00:00 18.4 13 Oeste 20 Oeste 0 -- -- 94
2019-09-21 06:00:00 17.6 10 Oeste 13 Oeste 0 -- -- 93
2019-09-21 05:00:00 17.7 7 Noroeste 12 Noroeste 0 -- -- 93
2019-09-21 04:00:00 17.9 7 Noroeste 17 Noroeste 0 -- -- 93
2019-09-21 03:00:00 17.2 8 Oeste 10 Oeste 0 -- -- 92
2019-09-21 02:00:00 17.2 6 Oeste 11 Noroeste 0 -- -- 89
2019-09-21 01:00:00 18.4 5 Noroeste 13 Noroeste 0 -- -- 87
2019-09-21 00:00:00 18.5 9 Noroeste 19 Noroeste 0 -- -- 89
2019-09-20 23:00:00 19.1 10 Noroeste 18 Noroeste 0 -- -- 87
2019-09-20 22:00:00 19.3 10 Noroeste 23 Noroeste 0 -- -- 87
2019-09-20 21:00:00 19.7 15 Noroeste 25 Noroeste 0 -- -- 85
2019-09-20 20:00:00 20.4 14 Noroeste 27 Noroeste 0 -- -- 79
2019-09-20 19:00:00 21.9 20 Noroeste 32 Noroeste 0 -- -- 73
2019-09-20 18:00:00 23.2 19 Noroeste 35 Norte 0 -- -- 67
2019-09-20 17:00:00 24.5 19 Noroeste 27 Noroeste 0 -- -- 62
2019-09-20 16:00:00 25.2 13 Norte 29 Noroeste 0 -- -- 63
2019-09-20 15:00:00 24.6 16 Noroeste 28 Noroeste 0 -- -- 64
2019-09-20 14:00:00 24.6 17 Noroeste 28 Noroeste 0 -- -- 67
2019-09-20 13:00:00 24.3 14 Norte 26 Norte 0 -- -- 65
2019-09-20 12:00:00 22.9 12 Noroeste 21 Noroeste 0 -- -- 74
2019-09-20 11:00:00 23.3 14 Nordeste 23 Norte 0 -- -- 71
2019-09-20 10:00:00 21 13 Norte 20 Norte 0 -- -- 87
2019-09-20 09:00:00 20.1 12 Norte 24 Noroeste 0 -- -- 89
2019-09-20 08:00:00 19.5 9 Norte 19 Norte 0 -- -- 89
2019-09-20 07:00:00 19.5 13 Norte 26 Norte 0 -- -- 89
2019-09-20 06:00:00 19.2 18 Norte 27 Norte 0 -- -- 89
2019-09-20 05:00:00 19.4 7 Norte 22 Norte 0 -- -- 90
2019-09-20 04:00:00 19.4 12 Norte 22 Norte 0 -- -- 91
2019-09-20 03:00:00 19.4 12 Norte 24 Norte 0 -- -- 89
2019-09-20 02:00:00 19.7 16 Norte 27 Norte 0 -- -- 87
2019-09-20 01:00:00 19.7 12 Norte 32 Norte 0 -- -- 88
2019-09-20 00:00:00 19.7 19 Norte 35 Noroeste 0 -- -- 89
2019-09-19 23:00:00 19.6 22 Noroeste 34 Noroeste 0 -- -- 89
2019-09-19 22:00:00 19.5 18 Noroeste 30 Noroeste 0 -- -- 89
2019-09-19 21:00:00 19.7 16 Noroeste 28 Norte 0 -- -- 86
2019-09-19 20:00:00 20.3 19 Norte 28 Norte 0 -- -- 84
2019-09-19 19:00:00 21.1 22 Norte 32 Norte 0 -- -- 78
2019-09-19 18:00:00 22.6 18 Norte 35 Nordeste 0 -- -- 72
2019-09-19 17:00:00 23.1 18 Norte 35 Nordeste 0 -- -- 70
2019-09-19 16:00:00 23.8 19 Norte 32 Norte 0 -- -- 65
2019-09-19 15:00:00 23.8 20 Norte 36 Norte 0 -- -- 69
2019-09-19 14:00:00 23.9 22 Norte 36 Norte 0 -- -- 68
2019-09-19 13:00:00 22.8 24 Norte 37 Norte 0 -- -- 72
2019-09-19 12:00:00 21.7 21 Norte 32 Nordeste 0 -- -- 79
2019-09-19 11:00:00 21.7 18 Norte 35 Nordeste 0 -- -- 77
2019-09-19 10:00:00 21.2 18 Norte 30 Norte 0 -- -- 79
2019-09-19 09:00:00 20.2 16 Norte 26 Nordeste 0 -- -- 88
2019-09-19 08:00:00 18.7 9 Norte 18 Norte 0 -- -- 92
2019-09-19 07:00:00 18.6 9 Norte 17 Norte 0 -- -- 92
2019-09-19 06:00:00 18.9 7 Norte 24 Norte 0 -- -- 92
2019-09-19 05:00:00 18.8 10 Norte 21 Norte 0 -- -- 92
2019-09-19 04:00:00 18.9 10 Nordeste 21 Norte 0 -- -- 93
2019-09-19 03:00:00 18.8 10 Nordeste 18 Nordeste 0 -- -- 92
2019-09-19 02:00:00 18.9 8 Norte 19 Norte 0 -- -- 91
2019-09-19 01:00:00 19.2 13 Norte 25 Norte 0 -- -- 90
2019-09-19 00:00:00 19.3 15 Norte 27 Nordeste 0 -- -- 90
2019-09-18 23:00:00 19.4 17 Norte 27 Norte 0 -- -- 89
2019-09-18 22:00:00 19.5 15 Norte 27 Norte 0 -- -- 88
2019-09-18 21:00:00 19.7 16 Norte 23 Norte 0 -- -- 88
2019-09-18 20:00:00 20.2 16 Nordeste 26 Nordeste 0 -- -- 85
2019-09-18 19:00:00 21.4 13 Nordeste 23 Nordeste 0 -- -- 79
2019-09-18 18:00:00 21.7 17 Nordeste 29 Nordeste 0 -- -- 77
2019-09-18 17:00:00 22.8 14 Nordeste 28 Nordeste 0 -- -- 74
2019-09-18 16:00:00 23.8 17 Nordeste 34 Nordeste 0 -- -- 69
2019-09-18 15:00:00 23.3 19 Nordeste 33 Nordeste 0 -- -- 70
2019-09-18 14:00:00 23.4 16 Nordeste 35 Nordeste 0 -- -- 71
2019-09-18 13:00:00 23.6 17 Nordeste 33 Nordeste 0 -- -- 69
2019-09-18 12:00:00 22.4 18 Nordeste 28 Nordeste 0 -- -- 75
2019-09-18 11:00:00 20.9 13 Nordeste 22 Nordeste 0 -- -- 81
2019-09-18 10:00:00 20.3 14 Nordeste 23 Norte 0 -- -- 84
2019-09-18 09:00:00 19.8 12 Nordeste 22 Nordeste 0 -- -- 86
2019-09-18 08:00:00 19.2 9 Nordeste 19 Este 0 -- -- 87
2019-09-18 07:00:00 19.3 9 Nordeste 20 Nordeste 0 -- -- 85
2019-09-18 06:00:00 19.3 12 Nordeste 21 Nordeste 0 -- -- 85
2019-09-18 05:00:00 19.4 12 Nordeste 26 Nordeste 0 -- -- 85
2019-09-18 04:00:00 19.3 13 Nordeste 23 Nordeste 0 -- -- 87
2019-09-18 03:00:00 19.4 9 Nordeste 23 Nordeste 0 -- -- 87
2019-09-18 02:00:00 19.3 10 Nordeste 20 Nordeste 0 -- -- 89
2019-09-18 01:00:00 19.4 9 Nordeste 21 Nordeste 0 -- -- 88
2019-09-18 00:00:00 19.6 12 Nordeste 18 Nordeste 0 -- -- 87
2019-09-17 23:00:00 19.7 9 Norte 19 Nordeste 0 -- -- 88
2019-09-17 22:00:00 19.7 10 Nordeste 21 Norte 0 -- -- 88
2019-09-17 21:00:00 19.8 8 Nordeste 18 Norte 0 -- -- 87
2019-09-17 20:00:00 20.1 13 Nordeste 24 Norte 0 -- -- 86